createdAt,value
2023-05-05T00:00:47.898Z,17.43
2023-05-05T00:01:47.761Z,17.38
2023-05-05T00:02:47.960Z,17.30
2023-05-05T00:03:47.962Z,17.28
2023-05-05T00:04:47.792Z,17.28
2023-05-05T00:05:47.792Z,17.26
2023-05-05T00:06:47.963Z,17.28
2023-05-05T00:07:47.816Z,17.25
2023-05-05T00:08:47.628Z,17.26
2023-05-05T00:09:47.914Z,17.32
2023-05-05T00:10:47.575Z,17.33
2023-05-05T00:11:47.753Z,17.35
2023-05-05T00:12:47.993Z,17.32
2023-05-05T00:13:47.668Z,17.30
2023-05-05T00:14:47.825Z,17.28
2023-05-05T00:15:47.474Z,17.22
2023-05-05T00:16:47.704Z,17.15
2023-05-05T00:17:47.504Z,17.14
2023-05-05T00:18:47.572Z,17.13
2023-05-05T00:19:47.789Z,17.10
2023-05-05T00:20:47.799Z,17.04
2023-05-05T00:21:47.784Z,16.99
2023-05-05T00:22:47.584Z,17.00
2023-05-05T00:23:47.467Z,17.10
2023-05-05T00:24:47.544Z,17.20
2023-05-05T00:25:47.365Z,17.29
2023-05-05T00:26:47.569Z,17.30
2023-05-05T00:27:47.427Z,17.36
2023-05-05T00:28:47.628Z,17.41
2023-05-05T00:29:47.369Z,17.41
2023-05-05T00:30:47.490Z,17.44
2023-05-05T00:31:47.520Z,17.51
2023-05-05T00:32:47.634Z,17.54
2023-05-05T00:33:47.492Z,17.57
2023-05-05T00:34:47.456Z,17.59
2023-05-05T00:35:47.339Z,17.67
2023-05-05T00:36:47.277Z,17.70
2023-05-05T00:37:47.418Z,17.71
2023-05-05T00:38:47.404Z,17.67
2023-05-05T00:39:47.233Z,17.63
2023-05-05T00:40:47.257Z,17.57
2023-05-05T00:41:47.374Z,17.55
2023-05-05T00:42:47.245Z,17.54
2023-05-05T00:43:47.220Z,17.53
2023-05-05T00:44:47.226Z,17.53
2023-05-05T00:45:47.217Z,17.48
2023-05-05T00:46:47.501Z,17.44
2023-05-05T00:47:47.216Z,17.41
2023-05-05T00:48:47.186Z,17.36
2023-05-05T00:49:47.354Z,17.36
2023-05-05T00:50:47.271Z,17.32
2023-05-05T00:51:47.162Z,17.29
2023-05-05T00:52:47.140Z,17.25
2023-05-05T00:54:08.300Z,17.20
2023-05-05T00:54:47.156Z,17.11
2023-05-05T00:55:47.155Z,17.04
2023-05-05T00:56:47.116Z,16.98
2023-05-05T00:57:47.098Z,16.95
2023-05-05T00:58:47.062Z,16.93
2023-05-05T00:59:47.141Z,16.93
2023-05-05T01:00:47.200Z,16.96
2023-05-05T01:01:47.189Z,17.04
2023-05-05T01:02:47.158Z,17.11
2023-05-05T01:03:47.130Z,17.15
2023-05-05T01:04:47.121Z,17.17
2023-05-05T01:05:47.029Z,17.17
2023-05-05T01:06:47.067Z,17.20
2023-05-05T01:07:46.969Z,17.20
2023-05-05T01:08:46.935Z,17.18
2023-05-05T01:09:46.977Z,17.11
2023-05-05T01:10:46.995Z,17.10
2023-05-05T01:11:47.008Z,17.10
2023-05-05T01:12:46.966Z,17.11
2023-05-05T01:13:46.921Z,17.11
2023-05-05T01:14:46.941Z,17.11
2023-05-05T01:15:46.890Z,17.10
2023-05-05T01:16:46.899Z,17.08
2023-05-05T01:17:47.184Z,17.11
2023-05-05T01:18:47.028Z,17.11
2023-05-05T01:19:46.901Z,17.10
2023-05-05T01:20:47.058Z,17.08
2023-05-05T01:21:46.858Z,17.08
2023-05-05T01:22:46.916Z,17.08
2023-05-05T01:23:46.811Z,17.06
2023-05-05T01:24:47.014Z,17.03
2023-05-05T01:25:46.824Z,17.03
2023-05-05T01:26:47.146Z,17.06
2023-05-05T01:27:46.796Z,17.06
2023-05-05T01:28:46.932Z,17.06
2023-05-05T01:29:46.827Z,17.03
2023-05-05T01:30:46.823Z,16.99
2023-05-05T01:31:46.781Z,16.95
2023-05-05T01:32:46.865Z,16.88
2023-05-05T01:33:46.909Z,16.86
2023-05-05T01:34:47.018Z,16.86
2023-05-05T01:35:46.807Z,16.88
2023-05-05T01:36:47.089Z,16.88
2023-05-05T01:37:46.790Z,16.86
2023-05-05T01:38:46.675Z,16.88
2023-05-05T01:39:46.717Z,16.85
2023-05-05T01:40:46.633Z,16.85
2023-05-05T01:41:46.621Z,16.88
2023-05-05T01:42:46.639Z,16.93
2023-05-05T01:43:46.701Z,16.98
2023-05-05T01:44:47.027Z,16.99
2023-05-05T01:45:46.660Z,16.98
2023-05-05T01:46:46.941Z,16.98
2023-05-05T01:47:46.610Z,16.93
2023-05-05T01:48:46.586Z,16.90
2023-05-05T01:49:46.534Z,16.83
2023-05-05T01:50:46.730Z,16.77
2023-05-05T01:51:46.721Z,16.71
2023-05-05T01:52:46.576Z,16.68
2023-05-05T01:53:47.358Z,16.62
2023-05-05T01:54:47.213Z,16.58
2023-05-05T01:55:46.623Z,16.52
2023-05-05T01:56:46.702Z,16.41
2023-05-05T01:57:46.416Z,16.34
2023-05-05T01:58:46.518Z,16.31
2023-05-05T01:59:46.622Z,16.25
2023-05-05T02:00:46.440Z,16.22
2023-05-05T02:01:46.623Z,16.15
2023-05-05T02:02:46.994Z,16.11
2023-05-05T02:03:46.967Z,16.09
2023-05-05T02:04:46.558Z,16.07
2023-05-05T02:05:46.677Z,16.07
2023-05-05T02:06:46.520Z,16.09
2023-05-05T02:07:46.549Z,16.07
2023-05-05T02:08:46.379Z,16.06
2023-05-05T02:09:46.509Z,15.99
2023-05-05T02:10:46.593Z,15.96
2023-05-05T02:11:46.862Z,15.93
2023-05-05T02:12:46.530Z,15.92
2023-05-05T02:13:46.536Z,15.85
2023-05-05T02:14:46.680Z,15.81
2023-05-05T02:15:46.767Z,15.76
2023-05-05T02:16:46.342Z,15.72
2023-05-05T02:17:46.420Z,15.67
2023-05-05T02:18:46.411Z,15.64
2023-05-05T02:19:46.225Z,15.60
2023-05-05T02:20:46.894Z,15.54
2023-05-05T02:21:46.424Z,15.49
2023-05-05T02:22:46.597Z,15.46
2023-05-05T02:23:46.327Z,15.43
2023-05-05T02:24:46.177Z,15.38
2023-05-05T02:25:46.231Z,15.35
2023-05-05T02:26:46.674Z,15.33
2023-05-05T02:27:46.349Z,15.31
2023-05-05T02:28:46.628Z,15.26
2023-05-05T02:29:46.334Z,15.26
2023-05-05T02:30:46.265Z,15.24
2023-05-05T02:31:46.197Z,15.27
2023-05-05T02:32:46.151Z,15.30
2023-05-05T02:33:46.132Z,15.31
2023-05-05T02:34:46.353Z,15.31
2023-05-05T02:35:46.090Z,15.35
2023-05-05T02:36:46.051Z,15.35
2023-05-05T02:37:46.105Z,15.35
2023-05-05T02:38:46.124Z,15.33
2023-05-05T02:39:46.033Z,15.36
2023-05-05T02:40:46.040Z,15.33
2023-05-05T02:41:46.085Z,15.35
2023-05-05T02:42:46.182Z,15.38
2023-05-05T02:43:46.161Z,15.38
2023-05-05T02:44:45.990Z,15.39
2023-05-05T02:45:46.166Z,15.42
2023-05-05T02:46:46.301Z,15.46
2023-05-05T02:47:46.365Z,15.48
2023-05-05T02:48:45.961Z,15.51
2023-05-05T02:49:46.233Z,15.56
2023-05-05T02:50:45.962Z,15.61
2023-05-05T02:51:46.488Z,15.64
2023-05-05T02:52:45.928Z,15.66
2023-05-05T02:53:45.962Z,15.68
2023-05-05T02:54:46.150Z,15.67
2023-05-05T02:55:45.952Z,15.70
2023-05-05T02:56:45.997Z,15.75
2023-05-05T02:57:46.133Z,15.78
2023-05-05T02:58:45.927Z,15.79
2023-05-05T02:59:45.876Z,15.79
2023-05-05T03:00:46.853Z,15.78
2023-05-05T03:01:45.831Z,15.76
2023-05-05T03:02:45.983Z,15.76
2023-05-05T03:03:45.908Z,15.76
2023-05-05T03:04:45.942Z,15.75
2023-05-05T03:05:45.900Z,15.75
2023-05-05T03:06:45.744Z,15.75
2023-05-05T03:07:45.952Z,15.75
2023-05-05T03:08:45.766Z,15.76
2023-05-05T03:09:45.734Z,15.81
2023-05-05T03:10:45.698Z,15.84
2023-05-05T03:11:45.747Z,15.82
2023-05-05T03:12:45.732Z,15.82
2023-05-05T03:13:45.711Z,15.78
2023-05-05T03:14:45.710Z,15.74
2023-05-05T03:15:45.668Z,15.70
2023-05-05T03:16:45.947Z,15.64
2023-05-05T03:17:45.764Z,15.57
2023-05-05T03:18:45.627Z,15.46
2023-05-05T03:19:45.703Z,15.39
2023-05-05T03:20:45.587Z,15.31
2023-05-05T03:21:45.669Z,15.26
2023-05-05T03:22:45.914Z,15.20
2023-05-05T03:23:45.609Z,15.15
2023-05-05T03:24:45.621Z,15.11
2023-05-05T03:25:45.592Z,15.03
2023-05-05T03:26:45.679Z,14.95
2023-05-05T03:27:45.716Z,14.90
2023-05-05T03:28:45.792Z,14.84
2023-05-05T03:29:45.687Z,14.75
2023-05-05T03:30:45.813Z,14.69
2023-05-05T03:31:45.494Z,14.60
2023-05-05T03:32:45.589Z,14.54
2023-05-05T03:33:45.721Z,14.46
2023-05-05T03:34:45.723Z,14.39
2023-05-05T03:35:45.540Z,14.29
2023-05-05T03:36:45.606Z,14.25
2023-05-05T03:37:45.548Z,14.16
2023-05-05T03:38:45.504Z,14.10
2023-05-05T03:39:45.396Z,14.06
2023-05-05T03:40:45.439Z,13.99
2023-05-05T03:41:45.465Z,13.94
2023-05-05T03:42:45.623Z,13.88
2023-05-05T03:43:45.477Z,13.84
2023-05-05T03:44:45.434Z,13.83
2023-05-05T03:45:45.368Z,13.81
2023-05-05T03:46:45.318Z,13.81
2023-05-05T03:47:45.394Z,13.80
2023-05-05T03:48:45.540Z,13.80
2023-05-05T03:49:45.478Z,13.77
2023-05-05T03:50:45.490Z,13.77
2023-05-05T03:51:45.419Z,13.79
2023-05-05T03:52:45.375Z,13.83
2023-05-05T03:53:45.688Z,13.87
2023-05-05T03:54:45.379Z,13.88
2023-05-05T03:55:45.289Z,13.91
2023-05-05T03:56:45.708Z,13.91
2023-05-05T03:57:45.262Z,13.87
2023-05-05T03:58:45.228Z,13.83
2023-05-05T03:59:45.458Z,13.76
2023-05-05T04:00:45.263Z,13.76
2023-05-05T04:01:45.413Z,13.70
2023-05-05T04:02:45.675Z,13.63
2023-05-05T04:03:45.277Z,13.59
2023-05-05T04:04:45.257Z,13.56
2023-05-05T04:05:45.224Z,13.49
2023-05-05T04:06:45.125Z,13.44
2023-05-05T04:07:45.597Z,13.40
2023-05-05T04:08:45.526Z,13.38
2023-05-05T04:09:45.140Z,13.36
2023-05-05T04:10:45.125Z,13.32
2023-05-05T04:11:45.140Z,13.27
2023-05-05T04:12:45.176Z,13.22
2023-05-05T04:13:45.064Z,13.21
2023-05-05T04:14:45.171Z,13.24
2023-05-05T04:15:45.361Z,13.24
2023-05-05T04:16:45.299Z,13.24
2023-05-05T04:17:45.082Z,13.22
2023-05-05T04:18:45.056Z,13.21
2023-05-05T04:19:45.022Z,13.20
2023-05-05T04:20:45.057Z,13.18
2023-05-05T04:21:45.018Z,13.17
2023-05-05T04:22:45.050Z,13.14
2023-05-05T04:23:45.190Z,13.09
2023-05-05T04:24:44.978Z,13.07
2023-05-05T04:25:44.984Z,13.03
2023-05-05T04:26:45.011Z,13.03
2023-05-05T04:27:44.941Z,13.02
2023-05-05T04:28:44.914Z,13.04
2023-05-05T04:29:44.961Z,13.06
2023-05-05T04:30:45.056Z,13.06
2023-05-05T04:31:44.902Z,13.09
2023-05-05T04:32:44.933Z,13.12
2023-05-05T04:33:44.941Z,13.17
2023-05-05T04:34:44.870Z,13.21
2023-05-05T04:35:45.058Z,13.27
2023-05-05T04:36:44.975Z,13.27
2023-05-05T04:37:44.798Z,13.27
2023-05-05T04:38:45.118Z,13.27
2023-05-05T04:39:44.818Z,13.29
2023-05-05T04:40:44.779Z,13.30
2023-05-05T04:41:44.852Z,13.33
2023-05-05T04:42:44.777Z,13.41
2023-05-05T04:43:44.904Z,13.46
2023-05-05T04:44:44.798Z,13.52
2023-05-05T04:45:44.978Z,13.62
2023-05-05T04:46:44.764Z,13.70
2023-05-05T04:47:44.784Z,13.80
2023-05-05T04:48:44.714Z,13.87
2023-05-05T04:49:44.709Z,13.91
2023-05-05T04:50:44.733Z,13.94
2023-05-05T04:51:44.707Z,13.99
2023-05-05T04:52:44.894Z,14.01
2023-05-05T04:53:44.784Z,14.10
2023-05-05T04:54:44.742Z,14.16
2023-05-05T04:55:44.636Z,14.19
2023-05-05T04:56:44.668Z,14.24
2023-05-05T04:57:44.790Z,14.25
2023-05-05T04:58:44.872Z,14.25
2023-05-05T04:59:44.659Z,14.29
2023-05-05T05:00:44.596Z,14.29
2023-05-05T05:01:44.714Z,14.29
2023-05-05T05:02:44.858Z,14.29
2023-05-05T05:03:44.744Z,14.28
2023-05-05T05:04:44.658Z,14.27
2023-05-05T05:05:44.686Z,14.27
2023-05-05T05:06:44.727Z,14.25
2023-05-05T05:07:44.582Z,14.27
2023-05-05T05:08:44.855Z,14.28
2023-05-05T05:09:44.725Z,14.29
2023-05-05T05:10:44.823Z,14.32
2023-05-05T05:11:44.735Z,14.34
2023-05-05T05:12:44.476Z,14.37
2023-05-05T05:13:44.466Z,14.39
2023-05-05T05:14:44.786Z,14.42
2023-05-05T05:15:44.592Z,14.44
2023-05-05T05:16:44.766Z,14.50
2023-05-05T05:17:44.479Z,14.53
2023-05-05T05:18:44.553Z,14.57
2023-05-05T05:19:44.542Z,14.60
2023-05-05T05:20:44.402Z,14.64
2023-05-05T05:21:44.389Z,14.65
2023-05-05T05:22:44.583Z,14.71
2023-05-05T05:23:44.633Z,14.74
2023-05-05T05:24:44.488Z,14.75
2023-05-05T05:25:44.349Z,14.80
2023-05-05T05:26:44.477Z,14.81
2023-05-05T05:27:44.760Z,14.83
2023-05-05T05:28:44.284Z,14.86
2023-05-05T05:29:44.378Z,14.87
2023-05-05T05:30:44.508Z,14.90
2023-05-05T05:31:44.399Z,14.91
2023-05-05T05:32:44.310Z,14.91
2023-05-05T05:33:44.422Z,14.94
2023-05-05T05:34:44.386Z,14.99
2023-05-05T05:35:44.414Z,15.02
2023-05-05T05:36:44.478Z,15.06
2023-05-05T05:37:44.456Z,15.09
2023-05-05T05:38:44.379Z,15.12
2023-05-05T05:39:44.321Z,15.12
2023-05-05T05:40:44.456Z,15.17
2023-05-05T05:41:44.277Z,15.19
2023-05-05T05:42:44.340Z,15.21
2023-05-05T05:43:44.198Z,15.26
2023-05-05T05:44:44.346Z,15.28
2023-05-05T05:45:44.177Z,15.31
2023-05-05T05:46:44.323Z,15.33
2023-05-05T05:47:44.371Z,15.38
2023-05-05T05:48:44.134Z,15.41
2023-05-05T05:49:44.090Z,15.45
2023-05-05T05:50:44.315Z,15.46
2023-05-05T05:51:44.084Z,15.48
2023-05-05T05:52:44.080Z,15.52
2023-05-05T05:53:44.104Z,15.56
2023-05-05T05:54:44.058Z,15.59
2023-05-05T05:55:44.031Z,15.63
2023-05-05T05:56:44.369Z,15.66
2023-05-05T05:57:44.170Z,15.68
2023-05-05T05:58:44.460Z,15.72
2023-05-05T05:59:44.135Z,15.76
2023-05-05T06:00:43.968Z,15.78
2023-05-05T06:01:44.279Z,15.84
2023-05-05T06:02:44.050Z,15.89
2023-05-05T06:03:44.000Z,15.93
2023-05-05T06:04:44.004Z,15.99
2023-05-05T06:05:44.058Z,16.00
2023-05-05T06:06:43.958Z,16.04
2023-05-05T06:07:44.086Z,16.11
2023-05-05T06:08:44.171Z,16.14
2023-05-05T06:09:44.017Z,16.18
2023-05-05T06:10:44.009Z,16.22
2023-05-05T06:11:44.006Z,16.27
2023-05-05T06:12:44.106Z,16.31
2023-05-05T06:13:43.833Z,16.35
2023-05-05T06:14:43.849Z,16.40
2023-05-05T06:15:44.048Z,16.41
2023-05-05T06:16:43.806Z,16.44
2023-05-05T06:17:43.896Z,16.49
2023-05-05T06:18:43.770Z,16.52
2023-05-05T06:19:43.877Z,16.55
2023-05-05T06:20:43.792Z,16.62
2023-05-05T06:21:43.927Z,16.63
2023-05-05T06:22:43.845Z,16.68
2023-05-05T06:23:43.955Z,16.71
2023-05-05T06:24:43.947Z,16.74
2023-05-05T06:25:43.719Z,16.77
2023-05-05T06:26:43.977Z,16.83
2023-05-05T06:27:43.918Z,16.81
2023-05-05T06:28:43.981Z,16.85
2023-05-05T06:29:44.078Z,16.89
2023-05-05T06:30:43.703Z,16.92
2023-05-05T06:31:43.701Z,16.95
2023-05-05T06:32:43.880Z,17.00
2023-05-05T06:33:43.641Z,17.08
2023-05-05T06:34:43.842Z,17.14
2023-05-05T06:35:43.686Z,17.23
2023-05-05T06:36:43.689Z,17.29
2023-05-05T06:37:43.702Z,17.33
2023-05-05T06:38:43.754Z,17.41
2023-05-05T06:39:43.709Z,17.47
2023-05-05T06:40:43.915Z,17.55
2023-05-05T06:41:43.746Z,17.62
2023-05-05T06:42:43.607Z,17.69
2023-05-05T06:43:43.748Z,17.73
2023-05-05T06:44:43.655Z,17.78
2023-05-05T06:45:43.922Z,17.82
2023-05-05T06:46:43.680Z,17.87
2023-05-05T06:47:43.561Z,17.92
2023-05-05T06:48:43.640Z,17.99
2023-05-05T06:49:43.468Z,18.06
2023-05-05T06:50:43.615Z,18.07
2023-05-05T06:51:43.475Z,18.12
2023-05-05T06:52:43.473Z,18.18
2023-05-05T06:53:43.637Z,18.21
2023-05-05T06:54:43.585Z,18.27
2023-05-05T06:55:43.454Z,18.34
2023-05-05T06:56:43.432Z,18.44
2023-05-05T06:57:43.499Z,18.46
2023-05-05T06:58:43.684Z,18.54
2023-05-05T06:59:43.734Z,18.61
2023-05-05T07:00:43.409Z,18.72
2023-05-05T07:01:43.378Z,18.76
2023-05-05T07:02:43.407Z,18.79
2023-05-05T07:03:43.610Z,18.86
2023-05-05T07:04:43.345Z,18.91
2023-05-05T07:05:43.467Z,18.97
2023-05-05T07:06:43.497Z,19.05
2023-05-05T07:07:43.439Z,19.11
2023-05-05T07:08:43.306Z,19.10
2023-05-05T07:09:43.309Z,19.17
2023-05-05T07:10:43.296Z,19.23
2023-05-05T07:11:43.325Z,19.29
2023-05-05T07:12:43.313Z,19.38
2023-05-05T07:13:43.235Z,19.38
2023-05-05T07:14:43.235Z,19.32
2023-05-05T07:15:43.390Z,19.29
2023-05-05T07:16:43.311Z,19.31
2023-05-05T07:17:43.541Z,19.23
2023-05-05T07:18:43.182Z,19.18
2023-05-05T07:19:43.587Z,19.20
2023-05-05T07:20:43.416Z,19.24
2023-05-05T07:21:43.164Z,19.23
2023-05-05T07:22:43.379Z,19.23
2023-05-05T07:23:43.161Z,19.20
2023-05-05T07:24:43.083Z,19.15
2023-05-05T07:25:43.495Z,19.11
2023-05-05T07:26:43.189Z,19.10
2023-05-05T07:27:43.186Z,19.13
2023-05-05T07:28:43.258Z,19.14
2023-05-05T07:29:43.405Z,19.10
2023-05-05T07:30:43.075Z,19.15
2023-05-05T07:31:43.120Z,19.13
2023-05-05T07:32:43.286Z,19.15
2023-05-05T07:33:43.027Z,19.11
2023-05-05T07:34:43.211Z,19.05
2023-05-05T07:35:43.038Z,19.02
2023-05-05T07:36:43.012Z,19.11
2023-05-05T07:37:43.210Z,19.23
2023-05-05T07:38:42.967Z,19.43
2023-05-05T07:39:42.984Z,19.60
2023-05-05T07:40:42.977Z,19.80
2023-05-05T07:41:43.003Z,19.97
2023-05-05T07:42:43.070Z,20.15
2023-05-05T07:43:44.650Z,20.28
2023-05-05T07:44:42.968Z,20.39
2023-05-05T07:45:43.699Z,20.43
2023-05-05T07:46:43.100Z,20.43
2023-05-05T07:47:43.232Z,20.33
2023-05-05T07:48:42.971Z,20.31
2023-05-05T07:49:42.880Z,20.38
2023-05-05T07:50:43.062Z,20.39
2023-05-05T07:51:43.001Z,20.33
2023-05-05T07:52:48.409Z,20.33
2023-05-05T07:53:42.843Z,20.30
2023-05-05T07:54:42.787Z,20.24
2023-05-05T07:55:42.819Z,20.28
2023-05-05T07:56:42.817Z,20.24
2023-05-05T07:57:42.775Z,20.02
2023-05-05T07:58:42.795Z,19.98
2023-05-05T07:59:42.841Z,20.05
2023-05-05T08:00:42.855Z,20.16
2023-05-05T08:01:42.979Z,20.34
2023-05-05T08:02:42.817Z,20.49
2023-05-05T08:03:42.882Z,20.42
2023-05-05T08:04:42.897Z,20.46
2023-05-05T08:05:42.777Z,20.49
2023-05-05T08:06:43.688Z,20.42
2023-05-05T08:07:43.016Z,20.47
2023-05-05T08:08:42.788Z,20.68
2023-05-05T08:09:42.897Z,20.90
2023-05-05T08:10:42.656Z,21.09
2023-05-05T08:11:42.818Z,21.45
2023-05-05T08:12:43.036Z,21.60
2023-05-05T08:13:42.642Z,21.54
2023-05-05T08:14:42.637Z,21.51
2023-05-05T08:15:42.670Z,21.66
2023-05-05T08:16:42.840Z,21.60
2023-05-05T08:17:42.989Z,21.50
2023-05-05T08:18:42.759Z,21.34
2023-05-05T08:19:42.571Z,21.29
2023-05-05T08:20:42.808Z,21.48
2023-05-05T08:21:42.624Z,21.42
2023-05-05T08:22:42.729Z,21.14
2023-05-05T08:23:42.874Z,21.32
2023-05-05T08:24:42.633Z,21.53
2023-05-05T08:25:42.881Z,21.83
2023-05-05T08:26:42.647Z,22.20
2023-05-05T08:27:42.676Z,22.38
2023-05-05T08:28:42.473Z,22.62
2023-05-05T08:29:43.159Z,22.93
2023-05-05T08:30:42.608Z,23.20
2023-05-05T08:31:42.547Z,23.43
2023-05-05T08:32:42.756Z,23.52
2023-05-05T08:33:42.456Z,23.62
2023-05-05T08:34:42.422Z,23.62
2023-05-05T08:35:42.620Z,23.52
2023-05-05T08:36:42.650Z,23.42
2023-05-05T08:37:42.477Z,23.07
2023-05-05T08:38:42.467Z,22.67
2023-05-05T08:39:42.485Z,22.23
2023-05-05T08:40:42.460Z,22.39
2023-05-05T08:41:42.688Z,22.56
2023-05-05T08:42:42.395Z,22.74
2023-05-05T08:43:42.326Z,22.65
2023-05-05T08:44:42.544Z,22.69
2023-05-05T08:45:42.438Z,22.62
2023-05-05T08:46:42.541Z,22.41
2023-05-05T08:47:42.319Z,22.23
2023-05-05T08:48:42.285Z,22.32
2023-05-05T08:49:42.284Z,22.44
2023-05-05T08:50:42.498Z,22.71
2023-05-05T08:51:42.393Z,22.93
2023-05-05T08:52:42.313Z,23.15
2023-05-05T08:53:42.851Z,23.17
2023-05-05T08:54:42.345Z,23.45
2023-05-05T08:55:42.264Z,23.52
2023-05-05T08:56:42.209Z,23.76
2023-05-05T08:57:42.228Z,23.95
2023-05-05T08:58:42.247Z,24.24
2023-05-05T08:59:42.267Z,24.60
2023-05-05T09:00:42.198Z,24.85
2023-05-05T09:01:42.360Z,24.42
2023-05-05T09:02:42.419Z,24.08
2023-05-05T09:03:42.392Z,24.26
2023-05-05T09:04:42.115Z,24.50
2023-05-05T09:05:42.323Z,24.71
2023-05-05T09:06:42.520Z,24.68
2023-05-05T09:07:42.381Z,24.63
2023-05-05T09:08:42.115Z,24.80
2023-05-05T09:09:42.365Z,25.05
2023-05-05T09:10:42.288Z,25.34
2023-05-05T09:22:28.155Z,23.92
2023-05-05T09:23:08.214Z,24.01
2023-05-05T09:24:09.251Z,24.07
2023-05-05T09:25:08.289Z,24.26
2023-05-05T09:26:08.291Z,24.44
2023-05-05T09:27:08.925Z,24.90
2023-05-05T09:28:08.097Z,25.47
2023-05-05T09:29:08.116Z,25.67
2023-05-05T09:30:08.449Z,25.56
2023-05-05T09:31:08.129Z,25.28
2023-05-05T09:32:08.077Z,25.01
2023-05-05T09:33:08.210Z,24.95
2023-05-05T09:34:08.038Z,24.95
2023-05-05T09:35:08.305Z,25.32
2023-05-05T09:36:08.077Z,25.53
2023-05-05T09:37:08.229Z,25.71
2023-05-05T09:38:07.992Z,26.08
2023-05-05T09:39:08.156Z,26.49
2023-05-05T09:40:07.976Z,26.42
2023-05-05T09:41:08.202Z,26.06
2023-05-05T09:42:08.283Z,25.91
2023-05-05T09:43:07.970Z,25.47
2023-05-05T09:44:08.326Z,24.57
2023-05-05T09:45:08.504Z,23.86
2023-05-05T09:46:08.044Z,23.77
2023-05-05T09:47:22.061Z,24.05
2023-05-05T09:48:07.923Z,24.47
2023-05-05T09:49:07.925Z,24.87
2023-05-05T09:50:08.213Z,25.02
2023-05-05T09:51:08.136Z,25.13
2023-05-05T09:52:08.113Z,25.42
2023-05-05T09:53:08.083Z,25.49
2023-05-05T09:54:07.925Z,25.71
2023-05-05T09:55:07.943Z,25.93
2023-05-05T10:00:45.724Z,25.02
2023-05-05T10:01:46.934Z,25.24
2023-05-05T10:02:46.737Z,25.52
2023-05-05T10:03:47.003Z,25.67
2023-05-05T10:04:46.700Z,25.39
2023-05-05T10:05:46.696Z,24.90
2023-05-05T10:06:46.733Z,24.68
2023-05-05T10:07:46.744Z,24.63
2023-05-05T10:08:46.813Z,24.34
2023-05-05T10:09:46.784Z,24.17
2023-05-05T10:10:46.587Z,23.80
2023-05-05T10:11:46.771Z,23.72
2023-05-05T10:12:46.885Z,23.79
2023-05-05T10:13:46.545Z,23.98
2023-05-05T10:14:46.679Z,24.19
2023-05-05T10:15:46.597Z,24.38
2023-05-05T10:16:46.522Z,24.50
2023-05-05T10:18:02.234Z,24.73
2023-05-05T10:18:46.616Z,24.77
2023-05-05T10:19:46.609Z,25.12
2023-05-05T10:20:46.651Z,25.42
2023-05-05T10:21:46.847Z,25.30
2023-05-05T10:22:46.669Z,25.47
2023-05-05T10:23:46.661Z,25.37
2023-05-05T10:24:46.508Z,25.46
2023-05-05T10:25:46.464Z,25.38
2023-05-05T10:26:46.422Z,25.79
2023-05-05T10:27:46.616Z,26.25
2023-05-05T10:28:46.646Z,26.25
2023-05-05T10:29:46.560Z,26.57
2023-05-05T10:30:46.642Z,26.40
2023-05-05T10:31:46.562Z,26.42
2023-05-05T10:32:57.416Z,26.59
2023-05-05T10:33:46.540Z,26.89
2023-05-05T10:34:46.562Z,26.73
2023-05-05T10:35:46.668Z,26.12
2023-05-05T10:36:46.457Z,25.59
2023-05-05T10:37:46.360Z,25.86
2023-05-05T10:38:46.320Z,26.50
2023-05-05T10:39:46.330Z,27.36
2023-05-05T10:40:46.403Z,27.96
2023-05-05T10:41:46.527Z,28.01
2023-05-05T10:42:46.334Z,27.94
2023-05-05T10:43:46.287Z,27.41
2023-05-05T10:44:46.497Z,27.01
2023-05-05T10:45:46.403Z,26.92
2023-05-05T10:46:46.291Z,26.61
2023-05-05T10:47:46.607Z,26.20
2023-05-05T10:48:46.340Z,25.57
2023-05-05T10:49:46.257Z,25.13
2023-05-05T10:50:46.616Z,24.88
2023-05-05T10:51:46.502Z,25.02
2023-05-05T10:52:46.546Z,25.35
2023-05-05T10:53:46.212Z,25.27
2023-05-05T10:54:46.196Z,25.25
2023-05-05T10:55:46.206Z,25.24
2023-05-05T10:56:46.409Z,25.42
2023-05-05T10:57:46.655Z,25.53
2023-05-05T10:58:58.946Z,25.56
2023-05-05T10:59:46.303Z,25.43
2023-05-05T11:00:46.208Z,25.24
2023-05-05T11:01:46.151Z,25.15
2023-05-05T11:02:46.127Z,25.00
2023-05-05T11:03:46.530Z,24.68
2023-05-05T11:04:46.297Z,24.31
2023-05-05T11:05:46.119Z,23.95
2023-05-05T11:06:46.143Z,23.89
2023-05-05T11:07:46.257Z,23.92
2023-05-05T11:08:46.097Z,24.01
2023-05-05T11:09:46.146Z,23.98
2023-05-05T11:10:46.220Z,23.65
2023-05-05T11:11:46.254Z,23.60
2023-05-05T11:12:46.065Z,23.62
2023-05-05T11:13:46.003Z,23.76
2023-05-05T11:14:46.128Z,23.64
2023-05-05T11:15:46.246Z,23.64
2023-05-05T11:16:46.122Z,23.71
2023-05-05T11:17:46.115Z,23.65
2023-05-05T11:18:45.954Z,23.68
2023-05-05T11:19:46.072Z,23.60
2023-05-05T11:20:45.954Z,23.43
2023-05-05T11:21:45.980Z,23.39
2023-05-05T11:22:45.971Z,23.46
2023-05-05T11:23:46.096Z,23.43
2023-05-05T11:24:45.913Z,23.49
2023-05-05T11:25:45.976Z,23.49
2023-05-05T11:26:45.977Z,23.58
2023-05-05T11:27:46.188Z,23.64
2023-05-05T11:28:45.852Z,23.64
2023-05-05T11:29:46.004Z,23.61
2023-05-05T11:30:45.975Z,23.46
2023-05-05T11:31:46.016Z,23.29
2023-05-05T11:32:46.082Z,23.24
2023-05-05T11:33:45.940Z,23.17
2023-05-05T11:34:45.962Z,23.14
2023-05-05T11:35:45.998Z,23.02
2023-05-05T11:36:45.974Z,22.93
2023-05-05T11:37:45.789Z,22.89
2023-05-05T11:38:45.782Z,22.83
2023-05-05T11:39:46.019Z,22.67
2023-05-05T11:40:46.044Z,22.50
2023-05-05T11:41:45.769Z,22.43
2023-05-05T11:42:45.926Z,22.34
2023-05-05T11:43:45.722Z,22.25
2023-05-05T11:44:45.921Z,22.16
2023-05-05T11:45:45.746Z,22.06
2023-05-05T11:46:45.747Z,21.97
2023-05-05T11:47:46.648Z,21.91
2023-05-05T11:48:45.694Z,21.79
2023-05-05T11:49:45.822Z,21.67
2023-05-05T11:50:45.651Z,21.60
2023-05-05T11:51:45.756Z,21.46
2023-05-05T11:52:45.629Z,21.39
2023-05-05T11:53:45.603Z,21.30
2023-05-05T11:54:45.596Z,21.24
2023-05-05T11:55:45.825Z,21.11
2023-05-05T11:56:45.694Z,21.01
2023-05-05T11:57:45.659Z,20.87
2023-05-05T11:58:46.100Z,20.72
2023-05-05T11:59:46.749Z,20.62
2023-05-05T12:00:45.693Z,20.42
2023-05-05T12:01:45.523Z,20.30
2023-05-05T12:02:45.808Z,20.23
2023-05-05T12:03:46.214Z,20.09
2023-05-05T12:04:45.594Z,20.00
2023-05-05T12:05:45.499Z,19.90
2023-05-05T12:06:45.492Z,19.78
2023-05-05T12:07:45.504Z,19.65
2023-05-05T12:08:45.526Z,19.50
2023-05-05T12:09:46.078Z,19.29
2023-05-05T12:10:45.685Z,19.17
2023-05-05T12:11:46.151Z,19.06
2023-05-05T12:12:45.682Z,18.94
2023-05-05T12:13:45.462Z,18.83
2023-05-05T12:14:45.595Z,18.74
2023-05-05T12:15:45.697Z,18.57
2023-05-05T12:16:45.481Z,18.39
2023-05-05T12:17:45.569Z,18.27
2023-05-05T12:18:45.576Z,18.18
2023-05-05T12:19:45.581Z,18.10
2023-05-05T12:20:45.529Z,18.03
2023-05-05T12:21:45.857Z,17.99
2023-05-05T12:22:45.453Z,17.94
2023-05-05T12:23:45.519Z,17.79
2023-05-05T12:24:45.443Z,17.54
2023-05-05T12:25:45.325Z,17.36
2023-05-05T12:26:45.541Z,17.20
2023-05-05T12:27:45.436Z,17.10
2023-05-05T12:28:45.419Z,17.06
2023-05-05T12:29:45.702Z,17.00
2023-05-05T12:30:45.465Z,16.83
2023-05-05T12:31:45.656Z,16.77
2023-05-05T12:32:45.331Z,16.75
2023-05-05T12:33:45.392Z,16.78
2023-05-05T12:34:45.252Z,16.78
2023-05-05T12:35:45.251Z,16.78
2023-05-05T12:36:45.379Z,16.77
2023-05-05T12:37:45.538Z,16.74
2023-05-05T12:38:45.227Z,16.78
2023-05-05T12:39:45.433Z,16.81
2023-05-05T12:40:45.450Z,16.89
2023-05-05T12:41:45.235Z,16.95
2023-05-05T12:42:46.415Z,16.99
2023-05-05T12:43:45.422Z,16.95
2023-05-05T12:44:45.144Z,16.96
2023-05-05T12:45:45.296Z,17.03
2023-05-05T12:46:45.120Z,17.13
2023-05-05T12:47:45.201Z,17.17
2023-05-05T12:48:48.106Z,17.28
2023-05-05T12:49:45.100Z,17.30
2023-05-05T12:50:45.458Z,17.40
2023-05-05T12:51:46.222Z,17.44
2023-05-05T12:52:45.332Z,17.48
2023-05-05T12:53:45.053Z,17.53
2023-05-05T12:54:45.037Z,17.62
2023-05-05T12:55:45.054Z,17.67
2023-05-05T12:56:45.012Z,17.76
2023-05-05T12:57:46.781Z,17.79
2023-05-05T12:58:45.260Z,17.84
2023-05-05T12:59:45.234Z,17.92
2023-05-05T13:00:45.185Z,18.03
2023-05-05T13:01:45.070Z,18.10
2023-05-05T13:02:45.105Z,18.21
2023-05-05T13:03:44.980Z,18.25
2023-05-05T13:04:45.318Z,18.33
2023-05-05T13:05:45.027Z,18.42
2023-05-05T13:06:45.034Z,18.42
2023-05-05T13:07:45.038Z,18.33